Time;durP1;ratioP1;P1;durP2;ratioP2;P2;SDS_P1;SDS_P2;PMS_P1;PMS_P2;Temp;Humidity;BMP_temperature;BMP_pressure;BME280_temperature;BME280_humidity;BME280_pressure;Samples;Min_cycle;Max_cycle;Signal;HPM_P1;HPM_P2
2022/03/17 00:00:15;;;;;;;21.80;16.95;;;;;;;12.09;62.25;101687.59;3587536;40;20344;-66
2022/03/17 00:02:42;;;;;;;21.27;17.08;;;;;;;12.03;61.99;101671.75;3588740;40;20052;-65
2022/03/17 00:05:12;;;;;;;22.20;17.00;;;;;;;12.04;62.48;101682.44;3588161;40;20095;-64
2022/03/17 00:07:43;;;;;;;22.30;17.15;;;;;;;12.07;62.13;101684.97;3588838;40;20154;-65
2022/03/17 00:10:15;;;;;;;21.95;17.40;;;;;;;11.98;62.28;101663.03;3589070;40;20098;-65
2022/03/17 00:12:43;;;;;;;19.77;16.30;;;;;;;11.82;62.16;101636.88;3589387;40;20088;-65
2022/03/17 00:15:09;;;;;;;22.00;17.27;;;;;;;12.01;62.19;101663.75;3589638;40;20059;-65
2022/03/17 00:17:36;;;;;;;22.73;17.42;;;;;;;12.02;62.60;101672.69;3588304;40;20307;-65
2022/03/17 00:20:03;;;;;;;24.10;17.95;;;;;;;12.01;63.15;101673.66;3588133;39;20060;-64
2022/03/17 00:22:29;;;;;;;24.25;18.33;;;;;;;12.00;62.91;101671.94;3587932;40;20060;-65
2022/03/17 00:24:55;;;;;;;20.50;17.02;;;;;;;11.88;63.04;101659.97;3587417;40;20040;-65
2022/03/17 00:27:21;;;;;;;21.90;17.33;;;;;;;11.97;63.34;101672.09;3591320;40;20049;-64
2022/03/17 00:29:50;;;;;;;22.40;17.13;;;;;;;11.91;63.26;101672.41;3589652;40;20105;-65
2022/03/17 00:32:16;;;;;;;20.08;16.98;;;;;;;11.95;62.94;101673.97;3586602;39;20318;-65
2022/03/17 00:37:26;;;;;;;22.20;17.40;;;;;;;11.91;63.43;101667.91;3589357;40;20125;-66
2022/03/17 00:39:54;;;;;;;22.55;17.27;;;;;;;11.85;63.46;101671.78;3588041;39;20349;-65
2022/03/17 00:42:21;;;;;;;22.23;17.83;;;;;;;11.85;63.29;101674.47;3586499;40;20060;-65
2022/03/17 00:44:47;;;;;;;21.65;17.10;;;;;;;11.77;63.71;101665.91;3587608;40;20048;-65
2022/03/17 00:47:14;;;;;;;21.45;17.38;;;;;;;11.73;63.97;101669.69;3585501;40;20079;-66
2022/03/17 00:49:40;;;;;;;22.95;17.40;;;;;;;11.81;63.76;101683.66;3587478;40;20394;-64
2022/03/17 00:52:11;;;;;;;21.35;16.98;;;;;;;11.77;64.34;101675.81;3589508;40;20069;-67
2022/03/17 00:54:41;;;;;;;22.17;16.73;;;;;;;11.76;64.09;101677.63;3592074;40;20109;-65
2022/03/17 00:57:09;;;;;;;22.17;17.17;;;;;;;11.76;64.41;101680.31;3587647;39;20087;-66
2022/03/17 00:59:38;;;;;;;22.98;17.50;;;;;;;11.76;64.70;101696.47;3592857;39;20091;-65
2022/03/17 01:02:06;;;;;;;24.55;17.75;;;;;;;11.70;64.54;101680.63;3591938;40;20063;-65
2022/03/17 01:04:32;;;;;;;24.77;17.83;;;;;;;11.69;64.45;101684.28;3592365;40;20055;-65
2022/03/17 01:06:58;;;;;;;21.02;17.60;;;;;;;11.69;64.58;101678.91;3591681;39;20080;-66
2022/03/17 01:09:24;;;;;;;21.58;17.30;;;;;;;11.75;64.57;101686.66;3591599;40;20082;-64
2022/03/17 01:11:50;;;;;;;24.00;17.67;;;;;;;11.73;64.67;101685.88;3594541;40;20125;-65
2022/03/17 01:14:16;;;;;;;22.77;18.15;;;;;;;11.76;64.88;101690.22;3593225;40;20141;-65
2022/03/17 01:16:43;;;;;;;21.27;16.20;;;;;;;11.73;65.33;101688.56;3592752;40;20056;-65
2022/03/17 01:19:09;;;;;;;24.65;18.88;;;;;;;11.72;64.65;101669.81;3593158;39;20408;-65
2022/03/17 01:21:35;;;;;;;23.20;17.58;;;;;;;11.74;64.98;101673.28;3590849;40;20040;-66
2022/03/17 01:24:01;;;;;;;24.08;18.85;;;;;;;11.37;64.89;101602.53;3592233;40;20055;-66
2022/03/17 01:26:27;;;;;;;22.50;18.13;;;;;;;11.77;65.14;101676.69;3590743;39;20052;-65
2022/03/17 01:28:53;;;;;;;22.70;18.10;;;;;;;11.84;65.46;101678.13;3593376;39;20061;-65
2022/03/17 01:31:24;;;;;;;22.77;18.83;;;;;;;11.81;65.05;101672.88;3592836;40;20056;-65
2022/03/17 01:33:50;;;;;;;24.75;17.70;;;;;;;11.87;64.80;101689.72;3588033;39;20051;-65
2022/03/17 01:36:16;;;;;;;22.13;17.67;;;;;;;11.86;64.89;101680.72;3590129;39;20119;-65
2022/03/17 01:38:41;;;;;;;24.33;18.45;;;;;;;11.85;65.30;101674.47;3594132;39;20301;-66
2022/03/17 01:41:07;;;;;;;23.10;18.38;;;;;;;11.87;65.53;101670.84;3591905;39;20077;-66
2022/03/17 01:43:33;;;;;;;25.08;17.38;;;;;;;11.90;65.67;101674.25;3592431;40;20056;-65
2022/03/17 01:45:58;;;;;;;24.08;18.98;;;;;;;11.93;65.73;101678.59;3592451;40;20140;-65
2022/03/17 01:48:24;;;;;;;24.40;17.83;;;;;;;11.85;65.47;101673.59;3594403;40;20054;-66
2022/03/17 01:50:50;;;;;;;23.45;18.55;;;;;;;11.89;65.55;101679.69;3593763;40;20082;-66
2022/03/17 01:53:16;;;;;;;24.27;18.35;;;;;;;11.94;65.83;101688.41;3590293;39;20048;-65
2022/03/17 01:55:42;;;;;;;25.98;18.42;;;;;;;11.96;65.92;101694.59;3593713;39;20642;-65
2022/03/17 01:58:08;;;;;;;23.30;18.27;;;;;;;11.92;65.84;101679.53;3591373;39;20086;-65
2022/03/17 02:00:34;;;;;;;24.33;18.17;;;;;;;11.91;66.19;101675.97;3589172;39;20051;-65
2022/03/17 02:03:00;;;;;;;22.50;18.50;;;;;;;11.84;66.24;101664.66;3590655;40;20382;-65
2022/03/17 02:05:26;;;;;;;26.33;18.58;;;;;;;11.76;66.31;101644.44;3590047;40;20057;-64
2022/03/17 02:07:53;;;;;;;26.33;18.60;;;;;;;11.94;66.59;101683.03;3583036;40;20059;-65
2022/03/17 02:10:22;;;;;;;23.35;17.42;;;;;;;11.95;66.45;101684.75;3592255;40;20064;-66
2022/03/17 02:15:34;;;;;;;24.85;18.02;;;;;;;11.98;66.29;101690.00;3591482;40;20498;-64
2022/03/17 02:18:06;;;;;;;24.45;17.40;;;;;;;11.96;66.60;101694.59;3590212;39;20329;-67
2022/03/17 02:20:33;;;;;;;23.50;18.63;;;;;;;11.96;66.59;101691.91;3590461;40;20059;-65
2022/03/17 02:26:04;;;;;;;29.48;19.40;;;;;;;11.76;66.93;101672.25;3594072;40;20306;-65
2022/03/17 02:28:33;;;;;;;24.88;18.45;;;;;;;11.72;66.59;101659.03;3589683;40;20059;-65
2022/03/17 02:31:01;;;;;;;26.42;19.48;;;;;;;11.94;67.38;101704.59;3591278;39;20091;-66
2022/03/17 02:33:27;;;;;;;24.45;18.33;;;;;;;11.68;67.21;101663.72;3591980;40;20110;-65
2022/03/17 02:35:53;;;;;;;26.27;20.20;;;;;;;11.96;67.47;101708.09;3590468;39;20052;-65
2022/03/17 02:38:21;;;;;;;25.83;18.95;;;;;;;11.92;67.53;101703.78;3592255;40;20052;-65
2022/03/17 02:40:52;;;;;;;28.42;20.05;;;;;;;11.81;67.76;101691.72;3592299;39;20052;-65
2022/03/17 02:43:19;;;;;;;27.23;19.02;;;;;;;12.00;67.93;101720.44;3591360;40;20497;-68
2022/03/17 02:45:47;;;;;;;29.23;20.40;;;;;;;11.99;68.57;101719.56;3592726;40;20092;-65
2022/03/17 02:48:13;;;;;;;28.25;20.77;;;;;;;11.88;69.03;101702.22;3591039;39;20129;-65
2022/03/17 02:50:39;;;;;;;29.80;21.13;;;;;;;12.05;70.03;101729.13;3593129;39;20069;-66
2022/03/17 02:53:07;;;;;;;31.80;22.15;;;;;;;12.09;70.30;101725.31;3589088;40;20486;-65
2022/03/17 02:55:39;;;;;;;35.75;24.52;;;;;;;12.20;71.61;101740.91;3597575;39;20310;-65
2022/03/17 02:58:08;;;;;;;38.05;27.25;;;;;;;12.16;73.57;101731.25;3591453;39;20054;-66
2022/03/17 03:00:34;;;;;;;36.92;26.67;;;;;;;12.28;73.75;101760.25;3591244;40;20124;-65
2022/03/17 03:03:00;;;;;;;36.45;26.23;;;;;;;12.28;74.62;101758.41;3591712;39;20092;-65
2022/03/17 03:05:26;;;;;;;32.03;23.98;;;;;;;12.30;74.61;101761.91;3590560;40;20055;-66
2022/03/17 03:07:53;;;;;;;29.92;21.98;;;;;;;12.19;75.28;101769.69;3591722;39;20055;-66
2022/03/17 03:10:19;;;;;;;25.33;19.25;;;;;;;12.04;76.00;101765.97;3590726;40;20060;-66
2022/03/17 03:12:45;;;;;;;23.20;17.73;;;;;;;12.03;76.83;101783.13;3591925;39;20471;-66
2022/03/17 03:15:11;;;;;;;23.00;18.70;;;;;;;11.94;77.61;101793.50;3591754;40;20845;-66
2022/03/17 03:17:37;;;;;;;24.38;19.05;;;;;;;11.84;78.39;101812.84;3590213;40;20076;-65
2022/03/17 03:20:03;;;;;;;22.13;17.90;;;;;;;11.73;78.42;101817.84;3592092;40;20091;-65
2022/03/17 03:22:29;;;;;;;21.92;18.23;;;;;;;11.59;79.22;101818.56;3594996;39;20056;-63
2022/03/17 03:24:58;;;;;;;22.98;17.30;;;;;;;11.56;79.54;101828.63;3594825;39;20309;-65
2022/03/17 03:27:27;;;;;;;19.75;16.67;;;;;;;11.40;80.36;101817.75;3594224;40;20072;-64
2022/03/17 03:29:58;;;;;;;19.85;17.15;;;;;;;11.38;80.84;101831.28;3594319;39;20082;-64
2022/03/17 03:32:26;;;;;;;21.52;18.05;;;;;;;11.31;81.72;101845.97;3593751;40;20058;-64
2022/03/17 03:34:53;;;;;;;22.17;17.83;;;;;;;11.18;81.82;101843.97;3594577;39;20060;-64
2022/03/17 03:37:24;;;;;;;21.95;17.35;;;;;;;11.07;81.86;101833.72;3591792;39;20040;-65
2022/03/17 03:39:57;;;;;;;22.60;18.52;;;;;;;11.11;82.61;101857.72;3593396;40;20048;-65
2022/03/17 03:42:27;;;;;;;21.17;17.83;;;;;;;11.05;82.78;101863.38;3594526;40;20427;-65
2022/03/17 03:44:52;;;;;;;19.58;17.48;;;;;;;10.97;82.57;101859.28;3593907;39;20366;-64
2022/03/17 03:47:19;;;;;;;21.80;18.05;;;;;;;10.88;82.00;101860.63;3594515;39;20050;-65
2022/03/17 03:49:45;;;;;;;21.00;17.65;;;;;;;10.81;81.63;101876.13;3595594;39;20044;-65
2022/03/17 03:52:14;;;;;;;22.02;18.35;;;;;;;10.82;80.74;101891.34;3594428;39;20679;-65
2022/03/17 03:54:41;;;;;;;20.13;17.58;;;;;;;10.77;80.85;101897.88;3594341;40;20438;-65
2022/03/17 03:57:07;;;;;;;23.92;18.70;;;;;;;10.61;80.81;101895.00;3594278;39;20325;-64
2022/03/17 03:59:34;;;;;;;22.80;18.60;;;;;;;10.44;80.41;101883.19;3594730;39;20051;-65
2022/03/17 04:02:08;;;;;;;23.20;17.85;;;;;;;10.69;80.76;101933.19;3593486;39;20064;-65
2022/03/17 04:04:36;;;;;;;23.38;18.23;;;;;;;10.57;79.43;101942.66;3590216;40;20061;-65
2022/03/17 04:07:05;;;;;;;27.98;20.83;;;;;;;10.22;80.19;101902.03;3594424;39;20129;-65
2022/03/17 04:09:39;;;;;;;30.38;20.52;;;;;;;10.34;79.86;101946.38;3610938;22;20102;-64
2022/03/17 04:12:13;;;;;;;29.48;21.00;;;;;;;10.25;80.47;101960.16;3587657;40;20040;-64
2022/03/17 04:14:39;;;;;;;32.42;22.45;;;;;;;10.19;80.81;101965.78;3585912;40;20056;-63
2022/03/17 04:17:05;;;;;;;29.38;22.05;;;;;;;10.13;81.33;101971.41;3588887;39;20044;-64
2022/03/17 04:19:31;;;;;;;32.55;22.23;;;;;;;9.98;81.08;101968.41;3587844;40;20060;-64
2022/03/17 04:21:57;;;;;;;30.85;22.25;;;;;;;10.04;80.68;101998.66;3590367;40;20144;-64
2022/03/17 04:24:23;;;;;;;28.92;21.05;;;;;;;10.02;81.73;102000.53;3588868;40;20048;-64
2022/03/17 04:26:50;;;;;;;25.98;18.27;;;;;;;9.95;79.79;102002.59;3588623;40;20402;-64
2022/03/17 04:29:16;;;;;;;24.20;17.88;;;;;;;9.90;80.21;102013.53;3586410;40;20058;-65
2022/03/17 04:31:44;;;;;;;23.92;17.85;;;;;;;9.86;80.18;102019.06;3586101;40;20056;-65
2022/03/17 04:34:11;;;;;;;25.85;16.27;;;;;;;9.86;79.15;102030.69;3585804;39;20074;-65
2022/03/17 04:36:38;;;;;;;24.00;16.95;;;;;;;9.80;79.29;102030.94;3585827;40;20084;-65
2022/03/17 04:39:07;;;;;;;27.52;18.10;;;;;;;9.75;78.36;102051.72;3585352;40;20055;-65
2022/03/17 04:41:32;;;;;;;30.85;17.85;;;;;;;9.73;79.29;102054.44;3589771;39;20080;-63
2022/03/17 04:43:58;;;;;;;29.55;17.80;;;;;;;9.72;78.53;102067.94;3585609;40;20306;-63
2022/03/17 04:46:23;;;;;;;28.13;16.45;;;;;;;9.68;78.87;102063.63;3585167;39;20063;-63
2022/03/17 04:48:49;;;;;;;28.75;16.27;;;;;;;9.63;78.92;102068.28;3584879;40;20102;-63
2022/03/17 04:51:15;;;;;;;25.25;15.77;;;;;;;9.58;78.17;102075.63;3585656;39;20064;-63
2022/03/17 04:53:41;;;;;;;24.05;15.23;;;;;;;9.57;77.74;102087.31;3588226;39;20063;-63
2022/03/17 04:56:11;;;;;;;27.10;13.82;;;;;;;9.54;78.40;102091.00;3588760;40;20104;-63
2022/03/17 04:58:40;;;;;;;23.33;13.27;;;;;;;9.27;76.92;102058.88;3585371;40;20313;-63
2022/03/17 05:01:08;;;;;;;26.00;13.70;;;;;;;9.51;77.12;102110.78;3589978;40;20370;-65
2022/03/17 05:03:35;;;;;;;22.17;14.18;;;;;;;9.36;76.87;102089.00;3588460;40;20125;-63
2022/03/17 05:06:03;;;;;;;24.02;13.85;;;;;;;9.50;76.60;102127.81;3591057;39;20051;-63
2022/03/17 05:08:33;;;;;;;21.85;13.30;;;;;;;9.49;76.45;102136.81;3588271;40;20056;-63
2022/03/17 05:11:00;;;;;;;23.10;12.68;;;;;;;9.49;76.55;102139.47;3589046;39;20055;-63
2022/03/17 05:13:27;;;;;;;20.80;10.82;;;;;;;9.50;75.41;102153.78;3586627;40;20056;-63
2022/03/17 05:15:52;;;;;;;21.98;10.85;;;;;;;9.47;76.39;102160.13;3586995;39;20095;-63
2022/03/17 05:18:19;;;;;;;23.00;9.75;;;;;;;9.36;75.38;102151.59;3585544;40;20048;-63
2022/03/17 05:20:45;;;;;;;18.13;8.95;;;;;;;9.43;74.65;102181.78;3587761;40;20406;-63
2022/03/17 05:23:15;;;;;;;17.85;7.68;;;;;;;9.35;73.54;102181.16;3588335;40;20143;-63
2022/03/17 05:25:43;;;;;;;15.38;6.70;;;;;;;9.38;72.22;102184.59;3590532;40;20090;-63
2022/03/17 05:28:09;;;;;;;14.98;6.80;;;;;;;9.30;72.04;102189.38;3586035;39;20132;-62
2022/03/17 05:30:38;;;;;;;15.65;6.70;;;;;;;9.29;72.44;102203.69;3589168;39;20051;-63
2022/03/17 05:33:05;;;;;;;18.60;5.90;;;;;;;9.22;72.36;102191.44;3590295;39;20044;-63
2022/03/17 05:35:32;;;;;;;15.63;5.57;;;;;;;9.19;71.60;102202.28;3587033;40;20071;-63
2022/03/17 05:37:58;;;;;;;15.77;5.65;;;;;;;9.05;71.82;102187.53;3584504;39;20056;-63
2022/03/17 05:40:25;;;;;;;14.63;5.30;;;;;;;9.20;71.92;102228.19;3586942;40;20044;-63
2022/03/17 05:42:55;;;;;;;14.35;5.55;;;;;;;9.17;71.56;102222.94;3583482;40;20040;-63
2022/03/17 05:45:27;;;;;;;10.98;5.18;;;;;;;9.12;71.40;102232.94;3587655;39;20044;-63
2022/03/17 05:47:56;;;;;;;15.23;5.40;;;;;;;9.18;70.73;102248.81;3587366;40;20098;-63
2022/03/17 05:50:27;;;;;;;12.55;4.18;;;;;;;9.11;70.70;102240.09;3584857;40;20048;-63
2022/03/17 05:52:52;;;;;;;11.20;4.15;;;;;;;9.16;70.63;102256.03;3584857;39;20271;-63
2022/03/17 05:55:22;;;;;;;14.27;5.05;;;;;;;9.17;70.15;102260.50;3589728;40;20071;-63
2022/03/17 05:57:49;;;;;;;14.43;5.60;;;;;;;9.15;70.69;102260.53;3590476;40;20382;-63
2022/03/17 06:00:20;;;;;;;13.50;5.22;;;;;;;9.16;70.77;102266.75;3587809;39;20138;-63
2022/03/17 06:02:46;;;;;;;10.82;5.45;;;;;;;9.15;70.39;102270.38;3584630;39;20059;-63
2022/03/17 06:05:13;;;;;;;8.45;4.80;;;;;;;9.14;70.92;102282.06;3584294;40;20072;-63
2022/03/17 06:07:50;;;;;;;12.25;5.50;;;;;;;9.14;71.46;102287.41;3587577;39;20051;-63
2022/03/17 06:10:21;;;;;;;11.45;4.93;;;;;;;9.15;71.17;102291.84;3588380;40;20064;-63
2022/03/17 06:12:51;;;;;;;13.85;5.30;;;;;;;9.14;71.92;102300.84;3590986;39;20044;-63
2022/03/17 06:15:18;;;;;;;10.05;5.20;;;;;;;9.10;71.52;102309.88;3588240;39;20056;-63
2022/03/17 06:17:51;;;;;;;14.23;4.90;;;;;;;9.07;72.51;102322.47;3590349;39;20063;-63
2022/03/17 06:20:23;;;;;;;10.98;4.85;;;;;;;9.06;73.13;102326.06;3585598;40;20059;-63
2022/03/17 06:22:52;;;;;;;11.65;4.97;;;;;;;9.03;72.86;102331.53;3586245;40;20273;-63
2022/03/17 06:25:21;;;;;;;12.65;4.85;;;;;;;9.01;73.41;102341.44;3587515;40;20106;-62
2022/03/17 06:27:49;;;;;;;11.90;5.00;;;;;;;8.99;73.16;102342.41;3589284;39;20048;-63
2022/03/17 06:30:23;;;;;;;12.20;4.95;;;;;;;8.97;73.74;102353.19;3593611;39;20064;-63
2022/03/17 06:32:50;;;;;;;35.40;18.08;;;;;;;8.94;73.97;102350.59;3590048;39;20129;-64
2022/03/17 06:35:26;;;;;;;12.73;6.03;;;;;;;8.97;73.29;102360.34;3583829;39;20052;-64
2022/03/17 06:37:59;;;;;;;10.98;4.75;;;;;;;8.98;73.00;102360.31;3589999;39;20051;-64
2022/03/17 06:40:27;;;;;;;10.70;4.60;;;;;;;8.98;73.20;102371.03;3584368;39;20052;-64
2022/03/17 06:42:54;;;;;;;14.07;4.63;;;;;;;9.00;72.43;102379.03;3588093;40;20051;-64
2022/03/17 06:45:20;;;;;;;9.65;4.28;;;;;;;8.71;72.27;102329.84;3585076;40;20117;-64
2022/03/17 06:47:46;;;;;;;10.95;4.28;;;;;;;9.00;71.37;102393.31;3590034;39;20389;-64
2022/03/17 06:50:15;;;;;;;9.88;4.45;;;;;;;9.00;71.40;102396.00;3586223;39;20063;-64
2022/03/17 06:52:42;;;;;;;7.38;3.88;;;;;;;9.02;71.74;102409.38;3585517;39;20048;-64
2022/03/17 06:55:10;;;;;;;15.50;4.82;;;;;;;9.02;71.67;102410.25;3587318;40;20153;-64
2022/03/17 06:57:36;;;;;;;8.73;4.57;;;;;;;9.02;71.07;102404.88;3589886;40;20051;-64
2022/03/17 07:00:07;;;;;;;11.73;4.50;;;;;;;8.97;71.47;102404.13;3588456;39;20062;-64
2022/03/17 07:02:32;;;;;;;11.70;4.90;;;;;;;8.87;71.01;102399.97;3585376;39;20060;-64
2022/03/17 07:04:58;;;;;;;7.32;3.58;;;;;;;9.09;70.38;102431.53;3585497;39;20375;-63
2022/03/17 07:07:23;;;;;;;9.55;3.75;;;;;;;9.08;70.21;102438.72;3588190;39;20389;-64
2022/03/17 07:09:49;;;;;;;12.13;2.72;;;;;;;9.10;69.59;102438.66;3582338;40;20102;-64
2022/03/17 07:12:15;;;;;;;12.32;3.22;;;;;;;9.13;69.03;102444.78;3587476;40;20058;-64
2022/03/17 07:14:40;;;;;;;7.97;2.80;;;;;;;9.14;69.33;102448.38;3587396;40;20048;-63
2022/03/17 07:17:07;;;;;;;10.27;2.88;;;;;;;9.15;68.61;102444.75;3583548;39;20045;-63
2022/03/17 07:19:35;;;;;;;11.65;2.50;;;;;;;9.14;68.07;102459.13;3589379;40;20052;-63
2022/03/17 07:22:01;;;;;;;9.57;2.30;;;;;;;9.15;67.90;102463.53;3583071;39;20056;-64
2022/03/17 07:24:27;;;;;;;9.40;2.33;;;;;;;9.15;68.90;102467.09;3587161;39;20044;-63
2022/03/17 07:26:53;;;;;;;7.25;2.72;;;;;;;8.95;68.77;102435.50;3586662;40;20082;-64
2022/03/17 07:29:18;;;;;;;10.32;2.65;;;;;;;9.11;68.63;102477.97;3588245;40;20064;-63
2022/03/17 07:31:44;;;;;;;7.85;2.95;;;;;;;9.10;69.63;102482.44;3587966;39;20060;-63
2022/03/17 07:34:10;;;;;;;8.48;2.72;;;;;;;9.09;69.91;102487.88;3583142;39;20067;-63
2022/03/17 07:36:36;;;;;;;9.73;2.88;;;;;;;8.86;69.89;102464.41;3586538;39;20052;-64
2022/03/17 07:39:03;;;;;;;10.48;2.60;;;;;;;9.03;69.65;102508.56;3586209;40;20170;-64
2022/03/17 07:41:29;;;;;;;13.38;2.97;;;;;;;9.03;70.26;102524.66;3585018;40;20063;-63
2022/03/17 07:43:55;;;;;;;6.93;2.40;;;;;;;9.05;69.70;102521.94;3588582;39;20056;-64
2022/03/17 07:46:20;;;;;;;7.47;2.15;;;;;;;9.04;69.85;102522.88;3587867;40;20048;-64
2022/03/17 07:48:46;;;;;;;10.38;2.50;;;;;;;9.07;70.17;102521.00;3586507;39;20086;-62
2022/03/17 07:51:12;;;;;;;9.13;2.10;;;;;;;9.10;69.21;102527.16;3584884;39;20064;-62
2022/03/17 07:53:39;;;;;;;10.20;2.25;;;;;;;9.15;68.74;102525.25;3583516;40;20068;-62
2022/03/17 07:56:08;;;;;;;7.07;2.40;;;;;;;9.03;69.09;102503.19;3585927;40;20060;-63
2022/03/17 07:58:34;;;;;;;9.20;1.95;;;;;;;9.17;68.63;102526.09;3582255;40;20430;-63
2022/03/17 08:01:01;;;;;;;6.28;2.30;;;;;;;9.08;68.06;102516.50;3582803;40;20064;-62
2022/03/17 08:03:27;;;;;;;12.48;2.17;;;;;;;9.28;68.17;102550.81;3586611;40;20064;-62
2022/03/17 08:05:53;;;;;;;7.72;2.03;;;;;;;9.27;67.74;102555.28;3584132;40;20078;-63
2022/03/17 08:08:20;;;;;;;10.05;2.10;;;;;;;9.35;66.52;102560.44;3584514;39;20055;-63
2022/03/17 08:10:46;;;;;;;9.32;1.95;;;;;;;9.28;66.34;102551.69;3586868;40;20392;-62
2022/03/17 08:13:13;;;;;;;12.02;2.15;;;;;;;9.41;66.39;102560.25;3585180;39;20064;-62
2022/03/17 08:15:41;;;;;;;7.57;2.00;;;;;;;9.43;65.67;102571.84;3586062;39;20058;-62
2022/03/17 08:18:08;;;;;;;11.45;1.88;;;;;;;9.48;65.60;102574.38;3585401;40;20392;-63
2022/03/17 08:20:39;;;;;;;8.98;2.00;;;;;;;9.46;65.16;102566.38;3585500;40;20088;-62
2022/03/17 08:23:06;;;;;;;12.82;2.72;;;;;;;9.52;65.83;102582.31;3584955;40;20387;-62
2022/03/17 08:25:32;;;;;;;9.63;2.22;;;;;;;9.61;64.91;102593.69;3588689;40;20052;-63
2022/03/17 08:28:02;;;;;;;9.52;2.10;;;;;;;9.69;64.59;102605.09;3584177;40;20084;-63
2022/03/17 08:30:28;;;;;;;7.25;1.75;;;;;;;9.74;63.05;102605.84;3586892;40;20096;-62
2022/03/17 08:32:54;;;;;;;8.23;1.90;;;;;;;9.83;63.41;102608.25;3589527;39;20049;-63
2022/03/17 08:35:20;;;;;;;7.18;1.92;;;;;;;9.89;60.67;102613.41;3590062;40;20059;-63
2022/03/17 08:37:45;;;;;;;7.53;1.40;;;;;;;9.95;61.19;102618.59;3584329;40;20087;-62
2022/03/17 08:40:15;;;;;;;12.50;1.83;;;;;;;10.00;59.78;102630.09;3585466;40;20613;-62
2022/03/17 08:42:41;;;;;;;3.67;1.27;;;;;;;9.80;59.17;102596.69;3584841;40;20091;-63
2022/03/17 08:50:42;;;;;;;9.77;1.63;;;;;;;10.26;58.35;102657.09;3584766;40;20468;-62
2022/03/17 08:53:08;;;;;;;10.70;1.98;;;;;;;10.26;58.21;102649.03;3587381;40;20060;-62
2022/03/17 08:55:36;;;;;;;10.13;1.77;;;;;;;10.33;57.13;102654.19;3591721;40;20125;-62
2022/03/17 08:58:03;;;;;;;6.57;1.80;;;;;;;10.06;56.88;102606.69;3588635;40;20117;-63
2022/03/17 09:00:31;;;;;;;12.00;1.80;;;;;;;10.33;56.52;102656.88;3584692;40;20372;-63
2022/03/17 09:02:57;;;;;;;9.30;1.90;;;;;;;10.35;57.06;102662.22;3584324;40;20046;-63
2022/03/17 09:05:23;;;;;;;8.02;2.10;;;;;;;10.35;56.78;102660.41;3589834;39;20117;-62
2022/03/17 09:07:48;;;;;;;6.90;1.70;;;;;;;10.40;57.42;102671.91;3586023;40;20048;-62
2022/03/17 09:10:15;;;;;;;8.07;1.63;;;;;;;10.40;56.77;102671.00;3584421;40;20052;-63
2022/03/17 09:12:40;;;;;;;9.68;1.90;;;;;;;10.45;57.23;102683.38;3589000;40;20047;-63
2022/03/17 09:15:08;;;;;;;8.32;2.03;;;;;;;10.47;56.13;102679.78;3585994;39;20056;-63
2022/03/17 09:17:33;;;;;;;8.98;1.80;;;;;;;10.43;56.40;102689.72;3584542;40;20068;-63
2022/03/17 09:19:59;;;;;;;7.30;1.88;;;;;;;10.43;56.63;102690.63;3588498;40;20169;-63
2022/03/17 09:22:24;;;;;;;10.20;2.42;;;;;;;10.43;55.94;102693.34;3586410;39;20052;-63
2022/03/17 09:24:50;;;;;;;6.53;1.90;;;;;;;10.39;55.77;102694.34;3583881;40;20389;-63
2022/03/17 09:27:16;;;;;;;9.50;1.77;;;;;;;10.40;55.96;102704.19;3583882;39;20368;-63
2022/03/17 09:29:42;;;;;;;8.38;1.73;;;;;;;10.36;56.63;102710.56;3585739;40;20575;-63
2022/03/17 09:32:09;;;;;;;4.63;1.45;;;;;;;10.40;56.12;102706.88;3586707;40;20068;-62
2022/03/17 09:34:36;;;;;;;10.90;1.80;;;;;;;10.44;56.23;102703.16;3584446;40;20044;-63
2022/03/17 09:37:02;;;;;;;10.40;1.83;;;;;;;10.47;56.11;102709.38;3585718;40;20096;-63
2022/03/17 09:39:47;;;;;;;9.35;1.90;;;;;;;10.50;55.52;102725.38;3585867;40;20080;-64
2022/03/17 09:42:22;;;;;;;9.48;2.22;;;;;;;10.48;55.65;102729.94;3585330;40;20133;-63
2022/03/17 09:44:54;;;;;;;13.48;2.10;;;;;;;10.55;55.97;102727.00;3584445;40;20394;-63
2022/03/17 09:47:26;;;;;;;10.68;1.90;;;;;;;10.63;54.84;102729.47;3587217;40;20055;-63
2022/03/17 09:49:56;;;;;;;8.48;1.67;;;;;;;10.69;55.32;102734.66;3586219;40;20037;-63
2022/03/17 09:52:23;;;;;;;8.43;1.77;;;;;;;10.71;55.48;102735.47;3585201;39;20048;-63
2022/03/17 09:54:52;;;;;;;12.30;1.80;;;;;;;10.74;55.19;102738.06;3587356;39;20071;-64
2022/03/17 09:57:19;;;;;;;10.82;1.95;;;;;;;10.80;55.80;102745.94;3584672;40;20382;-63
2022/03/17 09:59:56;;;;;;;7.07;2.13;;;;;;;10.84;55.51;102750.28;3584361;40;20103;-64
2022/03/17 10:02:23;;;;;;;8.95;1.73;;;;;;;10.85;55.69;102761.94;3585483;40;20072;-64
2022/03/17 10:04:50;;;;;;;6.20;1.70;;;;;;;10.84;54.75;102762.84;3585749;40;20060;-64
2022/03/17 10:07:18;;;;;;;9.00;2.15;;;;;;;10.85;55.71;102773.59;3583367;40;20058;-64
2022/03/17 10:09:45;;;;;;;8.43;2.05;;;;;;;10.88;55.78;102778.88;3607745;22;20059;-63
2022/03/17 10:12:16;;;;;;;8.57;1.90;;;;;;;10.83;54.83;102764.66;3589557;40;20052;-63
2022/03/17 10:14:49;;;;;;;11.40;2.10;;;;;;;10.96;54.63;102780.44;3585294;40;20382;-63
2022/03/17 10:17:41;;;;;;;7.53;1.80;;;;;;;11.00;54.91;102782.06;3586265;40;20052;-63
2022/03/17 10:20:25;;;;;;;12.57;2.30;;;;;;;10.98;55.01;102794.72;3588345;40;20040;-63
2022/03/17 10:23:01;;;;;;;8.45;1.90;;;;;;;10.97;54.34;102796.50;3593250;40;20124;-63
2022/03/17 10:25:30;;;;;;;7.72;1.80;;;;;;;10.98;55.31;102797.41;3586429;39;20063;-63
2022/03/17 10:27:57;;;;;;;7.07;2.03;;;;;;;11.01;54.63;102806.25;3585354;40;20052;-63
2022/03/17 10:30:35;;;;;;;10.05;2.35;;;;;;;11.01;54.51;102808.09;3587631;40;20059;-63
2022/03/17 10:33:14;;;;;;;7.18;1.55;;;;;;;11.03;54.92;102814.28;3587863;40;20041;-63
2022/03/17 10:35:45;;;;;;;9.27;1.45;;;;;;;10.91;54.70;102794.03;3586366;40;20044;-63
2022/03/17 10:38:27;;;;;;;10.38;2.10;;;;;;;11.08;54.26;102823.09;3588828;40;20302;-62
2022/03/17 10:41:05;;;;;;;9.55;1.85;;;;;;;11.10;54.15;102824.81;3586785;40;20047;-63
2022/03/17 10:43:31;;;;;;;6.85;1.58;;;;;;;11.19;53.66;102825.44;3590517;39;20095;-62
2022/03/17 10:46:20;;;;;;;8.40;1.75;;;;;;;11.24;53.10;102832.44;3589609;40;20059;-63
2022/03/17 10:49:00;;;;;;;10.20;1.42;;;;;;;11.21;54.05;102820.88;3588010;40;20055;-63
2022/03/17 10:51:38;;;;;;;8.82;1.73;;;;;;;11.32;53.73;102838.47;3584612;40;20355;-63
2022/03/17 10:54:08;;;;;;;9.45;1.98;;;;;;;11.36;54.03;102842.81;3588972;40;20073;-62
2022/03/17 10:56:38;;;;;;;6.22;1.65;;;;;;;11.26;53.33;102840.44;3587845;40;20058;-63
2022/03/17 10:59:09;;;;;;;7.18;1.92;;;;;;;11.33;53.73;102859.06;3586063;40;20060;-62
2022/03/17 11:01:42;;;;;;;8.35;2.17;;;;;;;11.24;53.23;102861.16;3585352;40;20048;-63
2022/03/17 11:04:09;;;;;;;9.68;2.10;;;;;;;11.15;54.11;102873.09;3590261;39;20108;-63
2022/03/17 11:06:38;;;;;;;8.75;2.00;;;;;;;11.09;53.54;102862.53;3586166;40;20044;-62
2022/03/17 11:09:08;;;;;;;10.23;1.98;;;;;;;11.14;54.08;102871.34;3588791;39;20117;-63
2022/03/17 11:11:38;;;;;;;9.85;1.77;;;;;;;11.10;53.41;102872.34;3588674;40;20048;-63
2022/03/17 11:14:09;;;;;;;7.72;1.95;;;;;;;11.15;53.48;102879.38;3587126;40;20055;-64
2022/03/17 11:16:54;;;;;;;11.70;1.80;;;;;;;11.27;52.29;102871.84;3590522;40;20302;-63
2022/03/17 11:19:23;;;;;;;5.28;1.60;;;;;;;11.53;51.57;102887.16;3588672;40;20052;-63
2022/03/17 11:22:05;;;;;;;3.70;1.15;;;;;;;11.63;50.26;102902.06;3592189;39;20128;-63
2022/03/17 11:24:31;;;;;;;8.40;1.90;;;;;;;11.65;50.44;102881.38;3592721;40;20055;-63
2022/03/17 11:27:13;;;;;;;6.57;2.22;;;;;;;11.88;50.28;102901.28;3590761;39;20056;-64
2022/03/17 11:29:48;;;;;;;5.35;1.70;;;;;;;11.86;49.70;102871.69;3586629;40;20050;-64
2022/03/17 11:32:27;;;;;;;4.95;2.10;;;;;;;12.09;48.34;102903.25;3590211;40;20118;-63
2022/03/17 11:35:15;;;;;;;7.07;1.92;;;;;;;11.68;48.63;102834.59;3585429;40;20052;-63
2022/03/17 11:37:41;;;;;;;6.00;2.00;;;;;;;12.15;49.21;102899.47;3587744;40;20305;-64